sensor_id;sensor_type;location;lat;lon;timestamp;P1;durP1;ratioP1;P2;durP2;ratioP2
36379;SDS011;22411;53.016;18.632;2022-09-27T00:00:34;36.42;;;28.75;;
36379;SDS011;22411;53.016;18.632;2022-09-27T00:03:21;41.22;;;29.15;;
36379;SDS011;22411;53.016;18.632;2022-09-27T00:05:47;33.90;;;26.85;;
36379;SDS011;22411;53.016;18.632;2022-09-27T00:08:13;32.65;;;26.52;;
36379;SDS011;22411;53.016;18.632;2022-09-27T00:10:39;36.08;;;26.23;;
36379;SDS011;22411;53.016;18.632;2022-09-27T00:13:05;33.22;;;26.90;;
36379;SDS011;22411;53.016;18.632;2022-09-27T00:15:31;34.88;;;28.20;;
36379;SDS011;22411;53.016;18.632;2022-09-27T00:17:56;32.95;;;26.60;;
36379;SDS011;22411;53.016;18.632;2022-09-27T00:20:22;35.70;;;27.50;;
36379;SDS011;22411;53.016;18.632;2022-09-27T00:22:48;38.17;;;28.38;;
36379;SDS011;22411;53.016;18.632;2022-09-27T00:25:14;36.35;;;27.83;;
36379;SDS011;22411;53.016;18.632;2022-09-27T00:27:42;35.95;;;27.85;;
36379;SDS011;22411;53.016;18.632;2022-09-27T00:30:08;38.67;;;29.27;;
36379;SDS011;22411;53.016;18.632;2022-09-27T00:32:35;35.08;;;27.80;;
36379;SDS011;22411;53.016;18.632;2022-09-27T00:35:01;37.00;;;28.65;;
36379;SDS011;22411;53.016;18.632;2022-09-27T00:37:27;34.65;;;28.27;;
36379;SDS011;22411;53.016;18.632;2022-09-27T00:39:55;36.95;;;28.13;;
36379;SDS011;22411;53.016;18.632;2022-09-27T00:42:22;34.88;;;27.33;;
36379;SDS011;22411;53.016;18.632;2022-09-27T00:44:53;39.22;;;29.20;;
36379;SDS011;22411;53.016;18.632;2022-09-27T00:47:26;31.45;;;25.75;;
36379;SDS011;22411;53.016;18.632;2022-09-27T00:50:04;33.90;;;27.90;;
36379;SDS011;22411;53.016;18.632;2022-09-27T00:52:46;34.97;;;26.48;;
36379;SDS011;22411;53.016;18.632;2022-09-27T00:55:34;34.40;;;26.77;;
36379;SDS011;22411;53.016;18.632;2022-09-27T00:58:04;34.53;;;27.83;;
36379;SDS011;22411;53.016;18.632;2022-09-27T01:00:31;33.75;;;26.80;;
36379;SDS011;22411;53.016;18.632;2022-09-27T01:02:57;37.70;;;27.10;;
36379;SDS011;22411;53.016;18.632;2022-09-27T01:05:26;34.15;;;26.95;;
36379;SDS011;22411;53.016;18.632;2022-09-27T01:07:53;33.05;;;26.20;;
36379;SDS011;22411;53.016;18.632;2022-09-27T01:10:21;31.35;;;25.67;;
36379;SDS011;22411;53.016;18.632;2022-09-27T01:12:53;34.20;;;26.80;;
36379;SDS011;22411;53.016;18.632;2022-09-27T01:28:58;31.35;;;24.50;;
36379;SDS011;22411;53.016;18.632;2022-09-27T01:34:11;37.08;;;25.25;;
36379;SDS011;22411;53.016;18.632;2022-09-27T01:44:50;30.75;;;24.90;;
36379;SDS011;22411;53.016;18.632;2022-09-27T01:47:22;32.47;;;23.67;;
36379;SDS011;22411;53.016;18.632;2022-09-27T01:49:58;40.92;;;23.63;;
36379;SDS011;22411;53.016;18.632;2022-09-27T01:52:36;30.50;;;26.23;;
36379;SDS011;22411;53.016;18.632;2022-09-27T01:55:10;80.60;;;30.80;;
36379;SDS011;22411;53.016;18.632;2022-09-27T01:57:39;40.67;;;26.65;;
36379;SDS011;22411;53.016;18.632;2022-09-27T02:00:11;67.10;;;28.95;;
36379;SDS011;22411;53.016;18.632;2022-09-27T02:02:49;44.38;;;29.65;;
36379;SDS011;22411;53.016;18.632;2022-09-27T02:05:20;66.43;;;28.52;;
36379;SDS011;22411;53.016;18.632;2022-09-27T02:08:00;42.80;;;28.37;;
36379;SDS011;22411;53.016;18.632;2022-09-27T02:10:31;46.50;;;31.10;;
36379;SDS011;22411;53.016;18.632;2022-09-27T02:21:22;51.78;;;30.48;;
36379;SDS011;22411;53.016;18.632;2022-09-27T02:23:54;46.38;;;29.58;;
36379;SDS011;22411;53.016;18.632;2022-09-27T02:26:31;40.97;;;29.60;;
36379;SDS011;22411;53.016;18.632;2022-09-27T02:29:09;42.13;;;29.83;;
36379;SDS011;22411;53.016;18.632;2022-09-27T02:31:39;47.42;;;31.48;;
36379;SDS011;22411;53.016;18.632;2022-09-27T02:34:13;47.05;;;30.85;;
36379;SDS011;22411;53.016;18.632;2022-09-27T02:36:52;44.85;;;30.20;;
36379;SDS011;22411;53.016;18.632;2022-09-27T02:39:18;48.90;;;31.63;;
36379;SDS011;22411;53.016;18.632;2022-09-27T02:41:45;51.85;;;32.30;;
36379;SDS011;22411;53.016;18.632;2022-09-27T02:44:12;42.60;;;31.20;;
36379;SDS011;22411;53.016;18.632;2022-09-27T02:47:01;51.30;;;30.95;;
36379;SDS011;22411;53.016;18.632;2022-09-27T02:57:45;60.35;;;32.70;;
36379;SDS011;22411;53.016;18.632;2022-09-27T03:00:15;57.80;;;32.08;;
36379;SDS011;22411;53.016;18.632;2022-09-27T03:05:20;48.25;;;31.80;;
36379;SDS011;22411;53.016;18.632;2022-09-27T03:07:49;48.35;;;31.40;;
36379;SDS011;22411;53.016;18.632;2022-09-27T03:10:16;57.53;;;31.25;;
36379;SDS011;22411;53.016;18.632;2022-09-27T03:12:43;60.28;;;31.88;;
36379;SDS011;22411;53.016;18.632;2022-09-27T03:15:09;51.03;;;31.33;;
36379;SDS011;22411;53.016;18.632;2022-09-27T03:17:35;44.85;;;30.77;;
36379;SDS011;22411;53.016;18.632;2022-09-27T03:20:01;52.08;;;31.10;;
36379;SDS011;22411;53.016;18.632;2022-09-27T03:22:28;61.88;;;30.77;;
36379;SDS011;22411;53.016;18.632;2022-09-27T03:24:54;51.85;;;30.25;;
36379;SDS011;22411;53.016;18.632;2022-09-27T03:27:20;67.75;;;32.90;;
36379;SDS011;22411;53.016;18.632;2022-09-27T03:29:45;53.78;;;31.55;;
36379;SDS011;22411;53.016;18.632;2022-09-27T03:32:11;51.22;;;32.05;;
36379;SDS011;22411;53.016;18.632;2022-09-27T03:34:37;56.47;;;31.40;;
36379;SDS011;22411;53.016;18.632;2022-09-27T03:37:03;57.30;;;32.15;;
36379;SDS011;22411;53.016;18.632;2022-09-27T03:39:29;60.50;;;33.63;;
36379;SDS011;22411;53.016;18.632;2022-09-27T03:41:55;67.07;;;33.53;;
36379;SDS011;22411;53.016;18.632;2022-09-27T03:44:21;55.15;;;32.95;;
36379;SDS011;22411;53.016;18.632;2022-09-27T03:46:48;64.80;;;33.30;;
36379;SDS011;22411;53.016;18.632;2022-09-27T03:49:14;56.88;;;33.65;;
36379;SDS011;22411;53.016;18.632;2022-09-27T03:51:39;58.63;;;33.47;;
36379;SDS011;22411;53.016;18.632;2022-09-27T03:54:07;49.95;;;32.22;;
36379;SDS011;22411;53.016;18.632;2022-09-27T03:56:33;52.35;;;31.25;;
36379;SDS011;22411;53.016;18.632;2022-09-27T03:58:59;46.25;;;30.67;;
36379;SDS011;22411;53.016;18.632;2022-09-27T04:01:25;45.30;;;32.30;;
36379;SDS011;22411;53.016;18.632;2022-09-27T04:03:52;48.13;;;29.08;;
36379;SDS011;22411;53.016;18.632;2022-09-27T04:06:18;47.55;;;30.02;;
36379;SDS011;22411;53.016;18.632;2022-09-27T04:08:44;45.80;;;31.05;;
36379;SDS011;22411;53.016;18.632;2022-09-27T04:11:12;48.92;;;32.80;;
36379;SDS011;22411;53.016;18.632;2022-09-27T04:13:39;42.20;;;31.20;;
36379;SDS011;22411;53.016;18.632;2022-09-27T04:16:06;47.13;;;31.42;;
36379;SDS011;22411;53.016;18.632;2022-09-27T04:18:32;39.65;;;30.90;;
36379;SDS011;22411;53.016;18.632;2022-09-27T04:20:58;43.97;;;31.63;;
36379;SDS011;22411;53.016;18.632;2022-09-27T04:23:24;46.33;;;30.55;;
36379;SDS011;22411;53.016;18.632;2022-09-27T04:25:50;45.40;;;30.55;;
36379;SDS011;22411;53.016;18.632;2022-09-27T04:28:16;41.88;;;28.50;;
36379;SDS011;22411;53.016;18.632;2022-09-27T04:30:42;51.15;;;30.58;;
36379;SDS011;22411;53.016;18.632;2022-09-27T04:33:08;41.30;;;29.67;;
36379;SDS011;22411;53.016;18.632;2022-09-27T04:35:33;64.45;;;34.40;;
36379;SDS011;22411;53.016;18.632;2022-09-27T04:38:18;42.90;;;30.25;;
36379;SDS011;22411;53.016;18.632;2022-09-27T04:40:47;46.80;;;29.10;;
36379;SDS011;22411;53.016;18.632;2022-09-27T04:43:13;49.58;;;31.08;;
36379;SDS011;22411;53.016;18.632;2022-09-27T04:45:39;44.90;;;32.35;;
36379;SDS011;22411;53.016;18.632;2022-09-27T04:48:05;54.13;;;31.45;;
36379;SDS011;22411;53.016;18.632;2022-09-27T04:50:31;52.05;;;31.92;;
36379;SDS011;22411;53.016;18.632;2022-09-27T04:52:57;50.45;;;31.38;;
36379;SDS011;22411;53.016;18.632;2022-09-27T04:55:22;53.85;;;31.50;;
36379;SDS011;22411;53.016;18.632;2022-09-27T04:57:48;47.47;;;30.58;;
36379;SDS011;22411;53.016;18.632;2022-09-27T05:00:15;46.30;;;30.33;;
36379;SDS011;22411;53.016;18.632;2022-09-27T05:02:42;44.38;;;30.75;;
36379;SDS011;22411;53.016;18.632;2022-09-27T05:05:09;46.25;;;32.10;;
36379;SDS011;22411;53.016;18.632;2022-09-27T05:07:36;59.10;;;32.13;;
36379;SDS011;22411;53.016;18.632;2022-09-27T05:10:02;43.05;;;31.45;;
36379;SDS011;22411;53.016;18.632;2022-09-27T05:12:28;45.88;;;32.10;;
36379;SDS011;22411;53.016;18.632;2022-09-27T05:14:54;58.90;;;31.73;;
36379;SDS011;22411;53.016;18.632;2022-09-27T05:17:20;50.92;;;30.70;;
36379;SDS011;22411;53.016;18.632;2022-09-27T05:19:47;47.78;;;32.50;;
36379;SDS011;22411;53.016;18.632;2022-09-27T05:22:13;62.72;;;31.40;;
36379;SDS011;22411;53.016;18.632;2022-09-27T05:24:39;43.05;;;29.58;;
36379;SDS011;22411;53.016;18.632;2022-09-27T05:27:06;42.88;;;29.35;;
36379;SDS011;22411;53.016;18.632;2022-09-27T05:29:35;43.35;;;29.48;;
36379;SDS011;22411;53.016;18.632;2022-09-27T05:32:01;48.70;;;29.02;;
36379;SDS011;22411;53.016;18.632;2022-09-27T05:34:30;48.42;;;28.73;;
36379;SDS011;22411;53.016;18.632;2022-09-27T05:36:57;43.78;;;29.42;;
36379;SDS011;22411;53.016;18.632;2022-09-27T05:39:23;43.42;;;29.98;;
36379;SDS011;22411;53.016;18.632;2022-09-27T05:41:49;50.40;;;29.63;;
36379;SDS011;22411;53.016;18.632;2022-09-27T05:44:16;39.45;;;28.75;;
36379;SDS011;22411;53.016;18.632;2022-09-27T05:46:42;45.35;;;28.80;;
36379;SDS011;22411;53.016;18.632;2022-09-27T05:49:08;46.33;;;29.35;;
36379;SDS011;22411;53.016;18.632;2022-09-27T05:51:34;50.50;;;28.10;;
36379;SDS011;22411;53.016;18.632;2022-09-27T05:54:00;40.95;;;25.73;;
36379;SDS011;22411;53.016;18.632;2022-09-27T05:56:27;36.88;;;25.73;;
36379;SDS011;22411;53.016;18.632;2022-09-27T05:58:53;37.95;;;27.15;;
36379;SDS011;22411;53.016;18.632;2022-09-27T06:01:19;39.08;;;27.02;;
36379;SDS011;22411;53.016;18.632;2022-09-27T06:03:45;42.55;;;26.70;;
36379;SDS011;22411;53.016;18.632;2022-09-27T06:06:13;37.47;;;25.42;;
36379;SDS011;22411;53.016;18.632;2022-09-27T06:08:39;39.90;;;25.98;;
36379;SDS011;22411;53.016;18.632;2022-09-27T06:11:06;46.50;;;25.80;;
36379;SDS011;22411;53.016;18.632;2022-09-27T06:13:34;40.65;;;24.13;;
36379;SDS011;22411;53.016;18.632;2022-09-27T06:16:01;46.50;;;22.23;;
36379;SDS011;22411;53.016;18.632;2022-09-27T06:18:28;39.63;;;22.90;;
36379;SDS011;22411;53.016;18.632;2022-09-27T06:20:54;43.70;;;22.13;;
36379;SDS011;22411;53.016;18.632;2022-09-27T06:23:22;39.15;;;21.65;;
36379;SDS011;22411;53.016;18.632;2022-09-27T06:25:49;42.03;;;22.63;;
36379;SDS011;22411;53.016;18.632;2022-09-27T06:28:16;34.00;;;21.77;;
36379;SDS011;22411;53.016;18.632;2022-09-27T06:30:43;36.88;;;22.80;;
36379;SDS011;22411;53.016;18.632;2022-09-27T06:33:11;35.03;;;22.13;;
36379;SDS011;22411;53.016;18.632;2022-09-27T06:35:39;42.15;;;24.98;;
36379;SDS011;22411;53.016;18.632;2022-09-27T06:38:07;36.83;;;22.75;;
36379;SDS011;22411;53.016;18.632;2022-09-27T06:40:35;41.83;;;24.48;;
36379;SDS011;22411;53.016;18.632;2022-09-27T06:43:05;39.70;;;23.20;;
36379;SDS011;22411;53.016;18.632;2022-09-27T06:45:34;38.05;;;23.55;;
36379;SDS011;22411;53.016;18.632;2022-09-27T06:48:01;39.47;;;23.17;;
36379;SDS011;22411;53.016;18.632;2022-09-27T06:50:28;37.13;;;22.25;;
36379;SDS011;22411;53.016;18.632;2022-09-27T06:52:55;35.00;;;21.08;;
36379;SDS011;22411;53.016;18.632;2022-09-27T06:55:21;34.53;;;21.42;;
36379;SDS011;22411;53.016;18.632;2022-09-27T06:57:47;33.20;;;21.48;;
36379;SDS011;22411;53.016;18.632;2022-09-27T07:00:31;34.53;;;23.20;;
36379;SDS011;22411;53.016;18.632;2022-09-27T07:02:57;34.42;;;21.40;;
36379;SDS011;22411;53.016;18.632;2022-09-27T07:05:27;36.28;;;22.70;;
36379;SDS011;22411;53.016;18.632;2022-09-27T07:07:54;30.75;;;20.98;;
36379;SDS011;22411;53.016;18.632;2022-09-27T07:10:26;30.35;;;20.30;;
36379;SDS011;22411;53.016;18.632;2022-09-27T07:12:54;27.10;;;18.83;;
36379;SDS011;22411;53.016;18.632;2022-09-27T07:15:21;30.02;;;19.92;;
36379;SDS011;22411;53.016;18.632;2022-09-27T07:17:54;26.35;;;18.05;;
36379;SDS011;22411;53.016;18.632;2022-09-27T07:20:22;30.45;;;23.30;;
36379;SDS011;22411;53.016;18.632;2022-09-27T07:22:49;58.67;;;46.38;;
36379;SDS011;22411;53.016;18.632;2022-09-27T07:25:15;39.03;;;30.40;;
36379;SDS011;22411;53.016;18.632;2022-09-27T07:27:41;34.00;;;28.65;;
36379;SDS011;22411;53.016;18.632;2022-09-27T07:30:08;24.75;;;18.33;;
36379;SDS011;22411;53.016;18.632;2022-09-27T07:32:34;25.52;;;18.40;;
36379;SDS011;22411;53.016;18.632;2022-09-27T07:35:01;29.20;;;21.60;;
36379;SDS011;22411;53.016;18.632;2022-09-27T07:37:32;26.88;;;22.30;;
36379;SDS011;22411;53.016;18.632;2022-09-27T07:39:59;26.50;;;19.17;;
36379;SDS011;22411;53.016;18.632;2022-09-27T07:42:26;29.15;;;21.20;;
36379;SDS011;22411;53.016;18.632;2022-09-27T07:44:53;25.83;;;20.10;;
36379;SDS011;22411;53.016;18.632;2022-09-27T07:47:20;23.55;;;18.05;;
36379;SDS011;22411;53.016;18.632;2022-09-27T07:49:50;24.33;;;17.77;;
36379;SDS011;22411;53.016;18.632;2022-09-27T07:52:18;21.50;;;17.23;;
36379;SDS011;22411;53.016;18.632;2022-09-27T07:54:45;20.35;;;16.45;;
36379;SDS011;22411;53.016;18.632;2022-09-27T07:57:11;21.98;;;17.63;;
36379;SDS011;22411;53.016;18.632;2022-09-27T07:59:38;21.02;;;16.85;;
36379;SDS011;22411;53.016;18.632;2022-09-27T08:02:04;21.88;;;16.95;;
36379;SDS011;22411;53.016;18.632;2022-09-27T08:04:30;19.00;;;15.77;;
36379;SDS011;22411;53.016;18.632;2022-09-27T08:06:56;18.75;;;15.80;;
36379;SDS011;22411;53.016;18.632;2022-09-27T08:09:22;17.80;;;14.82;;
36379;SDS011;22411;53.016;18.632;2022-09-27T08:11:50;18.75;;;15.25;;
36379;SDS011;22411;53.016;18.632;2022-09-27T08:14:16;18.48;;;14.02;;
36379;SDS011;22411;53.016;18.632;2022-09-27T08:16:43;16.45;;;13.43;;
36379;SDS011;22411;53.016;18.632;2022-09-27T08:19:09;14.35;;;12.43;;
36379;SDS011;22411;53.016;18.632;2022-09-27T08:21:35;16.33;;;12.90;;
36379;SDS011;22411;53.016;18.632;2022-09-27T08:24:01;15.35;;;13.13;;
36379;SDS011;22411;53.016;18.632;2022-09-27T08:26:29;16.48;;;13.90;;
36379;SDS011;22411;53.016;18.632;2022-09-27T08:28:54;18.40;;;14.88;;
36379;SDS011;22411;53.016;18.632;2022-09-27T08:31:20;15.27;;;13.07;;
36379;SDS011;22411;53.016;18.632;2022-09-27T08:33:49;18.33;;;13.25;;
36379;SDS011;22411;53.016;18.632;2022-09-27T08:36:16;20.65;;;15.45;;
36379;SDS011;22411;53.016;18.632;2022-09-27T08:38:42;28.95;;;20.67;;
36379;SDS011;22411;53.016;18.632;2022-09-27T08:41:11;20.60;;;15.13;;
36379;SDS011;22411;53.016;18.632;2022-09-27T08:46:40;29.80;;;19.42;;
36379;SDS011;22411;53.016;18.632;2022-09-27T08:49:12;61.80;;;32.15;;
36379;SDS011;22411;53.016;18.632;2022-09-27T08:51:47;26.10;;;17.20;;
36379;SDS011;22411;53.016;18.632;2022-09-27T08:54:19;28.58;;;22.15;;
36379;SDS011;22411;53.016;18.632;2022-09-27T08:57:03;25.23;;;17.83;;
36379;SDS011;22411;53.016;18.632;2022-09-27T08:59:38;31.60;;;20.33;;
36379;SDS011;22411;53.016;18.632;2022-09-27T09:02:18;38.97;;;21.00;;
36379;SDS011;22411;53.016;18.632;2022-09-27T09:04:47;22.80;;;14.52;;
36379;SDS011;22411;53.016;18.632;2022-09-27T09:07:22;24.02;;;14.52;;
36379;SDS011;22411;53.016;18.632;2022-09-27T09:13:54;20.63;;;13.73;;
36379;SDS011;22411;53.016;18.632;2022-09-27T09:16:50;21.70;;;13.50;;
36379;SDS011;22411;53.016;18.632;2022-09-27T09:21:34;29.88;;;15.40;;
36379;SDS011;22411;53.016;18.632;2022-09-27T09:34:24;31.02;;;15.07;;
36379;SDS011;22411;53.016;18.632;2022-09-27T09:39:38;23.77;;;13.80;;
36379;SDS011;22411;53.016;18.632;2022-09-27T09:44:57;19.27;;;12.20;;
36379;SDS011;22411;53.016;18.632;2022-09-27T09:47:35;13.45;;;11.02;;
36379;SDS011;22411;53.016;18.632;2022-09-27T09:50:27;14.60;;;10.73;;
36379;SDS011;22411;53.016;18.632;2022-09-27T09:53:03;29.95;;;13.90;;
36379;SDS011;22411;53.016;18.632;2022-09-27T09:55:42;24.77;;;12.63;;
36379;SDS011;22411;53.016;18.632;2022-09-27T09:58:23;22.13;;;11.68;;
36379;SDS011;22411;53.016;18.632;2022-09-27T10:01:47;19.45;;;11.82;;
36379;SDS011;22411;53.016;18.632;2022-09-27T10:06:44;20.02;;;10.63;;
36379;SDS011;22411;53.016;18.632;2022-09-27T10:09:12;15.88;;;11.63;;
36379;SDS011;22411;53.016;18.632;2022-09-27T10:11:41;10.98;;;8.63;;
36379;SDS011;22411;53.016;18.632;2022-09-27T10:14:13;17.38;;;12.80;;
36379;SDS011;22411;53.016;18.632;2022-09-27T10:16:42;23.23;;;14.93;;
36379;SDS011;22411;53.016;18.632;2022-09-27T10:19:14;22.77;;;16.02;;
36379;SDS011;22411;53.016;18.632;2022-09-27T10:21:43;25.05;;;14.98;;
36379;SDS011;22411;53.016;18.632;2022-09-27T10:24:16;13.70;;;12.30;;
36379;SDS011;22411;53.016;18.632;2022-09-27T10:31:47;15.20;;;11.50;;
36379;SDS011;22411;53.016;18.632;2022-09-27T10:36:43;12.18;;;10.38;;
36379;SDS011;22411;53.016;18.632;2022-09-27T10:39:18;15.35;;;13.23;;
36379;SDS011;22411;53.016;18.632;2022-09-27T10:41:46;16.13;;;12.57;;
36379;SDS011;22411;53.016;18.632;2022-09-27T10:46:46;13.13;;;11.32;;
36379;SDS011;22411;53.016;18.632;2022-09-27T10:52:05;13.50;;;11.35;;
36379;SDS011;22411;53.016;18.632;2022-09-27T10:54:39;13.70;;;12.35;;
36379;SDS011;22411;53.016;18.632;2022-09-27T10:59:39;14.13;;;12.52;;
36379;SDS011;22411;53.016;18.632;2022-09-27T11:05:00;19.92;;;14.00;;
36379;SDS011;22411;53.016;18.632;2022-09-27T11:07:52;15.57;;;13.60;;
36379;SDS011;22411;53.016;18.632;2022-09-27T11:10:21;14.90;;;13.23;;
36379;SDS011;22411;53.016;18.632;2022-09-27T11:18:49;19.08;;;14.75;;
36379;SDS011;22411;53.016;18.632;2022-09-27T11:27:41;15.68;;;14.00;;
36379;SDS011;22411;53.016;18.632;2022-09-27T11:30:23;15.50;;;13.90;;
36379;SDS011;22411;53.016;18.632;2022-09-27T11:33:10;20.65;;;18.55;;
36379;SDS011;22411;53.016;18.632;2022-09-27T11:39:00;17.13;;;15.38;;
36379;SDS011;22411;53.016;18.632;2022-09-27T11:41:39;21.55;;;19.27;;
36379;SDS011;22411;53.016;18.632;2022-09-27T11:44:32;21.02;;;18.88;;
36379;SDS011;22411;53.016;18.632;2022-09-27T11:49:40;13.75;;;12.40;;
36379;SDS011;22411;53.016;18.632;2022-09-27T11:58:03;17.15;;;15.35;;
36379;SDS011;22411;53.016;18.632;2022-09-27T12:06:58;17.13;;;15.05;;
36379;SDS011;22411;53.016;18.632;2022-09-27T12:09:42;20.00;;;15.95;;
36379;SDS011;22411;53.016;18.632;2022-09-27T12:12:15;20.40;;;15.77;;
36379;SDS011;22411;53.016;18.632;2022-09-27T12:17:25;23.20;;;16.52;;
36379;SDS011;22411;53.016;18.632;2022-09-27T12:19:59;18.83;;;16.50;;
36379;SDS011;22411;53.016;18.632;2022-09-27T12:22:33;26.85;;;18.13;;
36379;SDS011;22411;53.016;18.632;2022-09-27T12:25:05;24.25;;;16.65;;
36379;SDS011;22411;53.016;18.632;2022-09-27T12:27:41;26.27;;;17.73;;
36379;SDS011;22411;53.016;18.632;2022-09-27T12:30:11;22.58;;;16.98;;
36379;SDS011;22411;53.016;18.632;2022-09-27T12:32:45;16.92;;;14.13;;
36379;SDS011;22411;53.016;18.632;2022-09-27T12:35:46;17.08;;;14.70;;
36379;SDS011;22411;53.016;18.632;2022-09-27T12:38:17;16.58;;;14.75;;
36379;SDS011;22411;53.016;18.632;2022-09-27T12:40:51;16.77;;;14.05;;
36379;SDS011;22411;53.016;18.632;2022-09-27T12:43:29;14.45;;;12.90;;
36379;SDS011;22411;53.016;18.632;2022-09-27T12:51:07;13.23;;;11.23;;
36379;SDS011;22411;53.016;18.632;2022-09-27T13:14:04;16.73;;;13.25;;
36379;SDS011;22411;53.016;18.632;2022-09-27T13:16:40;16.90;;;13.23;;
36379;SDS011;22411;53.016;18.632;2022-09-27T13:22:05;19.52;;;15.93;;
36379;SDS011;22411;53.016;18.632;2022-09-27T13:27:17;18.38;;;16.48;;
36379;SDS011;22411;53.016;18.632;2022-09-27T13:30:42;20.90;;;16.42;;
36379;SDS011;22411;53.016;18.632;2022-09-27T13:33:19;20.10;;;16.58;;
36379;SDS011;22411;53.016;18.632;2022-09-27T13:35:32;17.90;;;15.57;;
36379;SDS011;22411;53.016;18.632;2022-09-27T13:38:02;19.17;;;16.70;;
36379;SDS011;22411;53.016;18.632;2022-09-27T13:40:33;20.33;;;16.92;;
36379;SDS011;22411;53.016;18.632;2022-09-27T13:45:52;21.33;;;17.02;;
36379;SDS011;22411;53.016;18.632;2022-09-27T13:48:31;21.35;;;17.20;;
36379;SDS011;22411;53.016;18.632;2022-09-27T13:55:35;20.30;;;17.20;;
36379;SDS011;22411;53.016;18.632;2022-09-27T14:00:21;20.02;;;16.52;;
36379;SDS011;22411;53.016;18.632;2022-09-27T14:05:49;19.73;;;17.58;;
36379;SDS011;22411;53.016;18.632;2022-09-27T14:09:02;20.23;;;18.10;;
36379;SDS011;22411;53.016;18.632;2022-09-27T14:13:59;21.05;;;18.83;;
36379;SDS011;22411;53.016;18.632;2022-09-27T14:16:31;19.85;;;17.60;;
36379;SDS011;22411;53.016;18.632;2022-09-27T14:19:04;21.52;;;17.88;;
36379;SDS011;22411;53.016;18.632;2022-09-27T14:21:51;19.38;;;16.92;;
36379;SDS011;22411;53.016;18.632;2022-09-27T14:24:24;20.42;;;18.33;;
36379;SDS011;22411;53.016;18.632;2022-09-27T14:27:09;18.80;;;17.00;;
36379;SDS011;22411;53.016;18.632;2022-09-27T14:29:38;21.08;;;18.98;;
36379;SDS011;22411;53.016;18.632;2022-09-27T14:32:30;20.63;;;17.65;;
36379;SDS011;22411;53.016;18.632;2022-09-27T14:35:07;21.27;;;18.52;;
36379;SDS011;22411;53.016;18.632;2022-09-27T14:38:05;20.90;;;18.17;;
36379;SDS011;22411;53.016;18.632;2022-09-27T14:40:40;22.42;;;18.15;;
36379;SDS011;22411;53.016;18.632;2022-09-27T14:43:20;19.05;;;17.00;;
36379;SDS011;22411;53.016;18.632;2022-09-27T14:45:47;19.40;;;17.50;;
36379;SDS011;22411;53.016;18.632;2022-09-27T14:48:37;18.65;;;16.75;;
36379;SDS011;22411;53.016;18.632;2022-09-27T14:53:35;18.95;;;17.10;;
36379;SDS011;22411;53.016;18.632;2022-09-27T14:56:17;20.35;;;18.25;;
36379;SDS011;22411;53.016;18.632;2022-09-27T14:58:53;19.38;;;17.48;;
36379;SDS011;22411;53.016;18.632;2022-09-27T15:01:27;20.05;;;17.95;;
36379;SDS011;22411;53.016;18.632;2022-09-27T15:04:16;19.25;;;17.35;;
36379;SDS011;22411;53.016;18.632;2022-09-27T15:06:42;19.35;;;17.35;;
36379;SDS011;22411;53.016;18.632;2022-09-27T15:09:11;19.50;;;17.42;;
36379;SDS011;22411;53.016;18.632;2022-09-27T15:11:39;18.73;;;16.85;;
36379;SDS011;22411;53.016;18.632;2022-09-27T15:14:07;18.30;;;16.40;;
36379;SDS011;22411;53.016;18.632;2022-09-27T15:16:40;19.27;;;17.33;;
36379;SDS011;22411;53.016;18.632;2022-09-27T15:19:14;19.52;;;17.08;;
36379;SDS011;22411;53.016;18.632;2022-09-27T15:21:46;19.55;;;16.23;;
36379;SDS011;22411;53.016;18.632;2022-09-27T15:24:34;18.63;;;16.60;;
36379;SDS011;22411;53.016;18.632;2022-09-27T15:27:22;19.05;;;16.40;;
36379;SDS011;22411;53.016;18.632;2022-09-27T15:29:50;17.75;;;15.95;;
36379;SDS011;22411;53.016;18.632;2022-09-27T15:32:22;16.25;;;14.65;;
36379;SDS011;22411;53.016;18.632;2022-09-27T15:34:50;17.25;;;15.07;;
36379;SDS011;22411;53.016;18.632;2022-09-27T15:37:24;17.98;;;16.20;;
36379;SDS011;22411;53.016;18.632;2022-09-27T15:42:57;19.50;;;16.17;;
36379;SDS011;22411;53.016;18.632;2022-09-27T15:48:14;20.85;;;17.30;;
36379;SDS011;22411;53.016;18.632;2022-09-27T15:50:46;18.63;;;16.65;;
36379;SDS011;22411;53.016;18.632;2022-09-27T15:56:02;7.70;;;6.03;;
36379;SDS011;22411;53.016;18.632;2022-09-27T15:58:33;5.35;;;3.30;;
36379;SDS011;22411;53.016;18.632;2022-09-27T16:01:01;7.82;;;4.13;;
36379;SDS011;22411;53.016;18.632;2022-09-27T16:03:31;3.55;;;1.88;;
36379;SDS011;22411;53.016;18.632;2022-09-27T16:06:05;4.35;;;2.00;;
36379;SDS011;22411;53.016;18.632;2022-09-27T16:08:41;3.88;;;2.45;;
36379;SDS011;22411;53.016;18.632;2022-09-27T16:11:13;5.50;;;2.03;;
36379;SDS011;22411;53.016;18.632;2022-09-27T16:14:08;3.72;;;0.90;;
36379;SDS011;22411;53.016;18.632;2022-09-27T16:16:51;3.35;;;1.25;;
36379;SDS011;22411;53.016;18.632;2022-09-27T16:19:25;4.22;;;1.25;;
36379;SDS011;22411;53.016;18.632;2022-09-27T16:21:52;39.00;;;22.33;;
36379;SDS011;22411;53.016;18.632;2022-09-27T16:24:23;10.82;;;9.20;;
36379;SDS011;22411;53.016;18.632;2022-09-27T16:26:56;9.90;;;8.45;;
36379;SDS011;22411;53.016;18.632;2022-09-27T16:29:42;8.00;;;6.95;;
36379;SDS011;22411;53.016;18.632;2022-09-27T16:32:19;50.97;;;41.55;;
36379;SDS011;22411;53.016;18.632;2022-09-27T16:34:56;26.30;;;23.63;;
36379;SDS011;22411;53.016;18.632;2022-09-27T16:37:28;14.30;;;12.85;;
36379;SDS011;22411;53.016;18.632;2022-09-27T16:39:55;21.83;;;19.52;;
36379;SDS011;22411;53.016;18.632;2022-09-27T16:42:30;38.63;;;34.85;;
36379;SDS011;22411;53.016;18.632;2022-09-27T16:45:00;77.03;;;67.95;;
36379;SDS011;22411;53.016;18.632;2022-09-27T16:47:47;51.80;;;46.65;;
36379;SDS011;22411;53.016;18.632;2022-09-27T16:50:26;35.63;;;32.75;;
36379;SDS011;22411;53.016;18.632;2022-09-27T16:53:23;22.38;;;20.33;;
36379;SDS011;22411;53.016;18.632;2022-09-27T16:55:50;35.67;;;32.72;;
36379;SDS011;22411;53.016;18.632;2022-09-27T16:58:16;28.10;;;25.38;;
36379;SDS011;22411;53.016;18.632;2022-09-27T17:01:05;93.18;;;83.57;;
36379;SDS011;22411;53.016;18.632;2022-09-27T17:03:33;162.65;;;139.18;;
36379;SDS011;22411;53.016;18.632;2022-09-27T17:06:01;189.95;;;158.02;;
36379;SDS011;22411;53.016;18.632;2022-09-27T17:08:31;158.85;;;139.25;;
36379;SDS011;22411;53.016;18.632;2022-09-27T17:10:57;193.57;;;165.05;;
36379;SDS011;22411;53.016;18.632;2022-09-27T17:13:26;115.55;;;96.25;;
36379;SDS011;22411;53.016;18.632;2022-09-27T17:15:52;121.13;;;102.13;;
36379;SDS011;22411;53.016;18.632;2022-09-27T17:18:18;81.60;;;74.03;;
36379;SDS011;22411;53.016;18.632;2022-09-27T17:20:44;69.57;;;63.45;;
36379;SDS011;22411;53.016;18.632;2022-09-27T17:23:10;13.85;;;11.05;;
36379;SDS011;22411;53.016;18.632;2022-09-27T17:25:36;28.67;;;25.98;;
36379;SDS011;22411;53.016;18.632;2022-09-27T17:28:04;43.03;;;39.05;;
36379;SDS011;22411;53.016;18.632;2022-09-27T17:30:31;41.45;;;37.88;;